Time;durP1;ratioP1;P1;durP2;ratioP2;P2;SDS_P1;SDS_P2;PMS_P1;PMS_P2;Temp;Humidity;BMP_temperature;BMP_pressure;BME280_temperature;BME280_humidity;BME280_pressure;Samples;Min_cycle;Max_cycle;Signal;HPM_P1;HPM_P2
2021/07/06 00:01:36;;;;;;;14.70;8.70;;;;;;;;;;5073951;28;20029;-64
2021/07/06 00:04:02;;;;;;;15.73;8.48;;;;;;;;;;5074016;28;20033;-63
2021/07/06 00:06:28;;;;;;;15.82;8.75;;;;;;;;;;5073321;28;20108;-63
2021/07/06 00:08:54;;;;;;;14.95;8.52;;;;;;;;;;5056277;28;20075;-64
2021/07/06 00:11:20;;;;;;;16.25;8.13;;;;;;;;;;5073825;28;20082;-64
2021/07/06 00:13:46;;;;;;;14.30;7.72;;;;;;;;;;5073773;28;20056;-64
2021/07/06 00:16:13;;;;;;;15.15;8.10;;;;;;;;;;5073188;28;20025;-63
2021/07/06 00:18:39;;;;;;;14.60;8.15;;;;;;;;;;5073687;28;20023;-64
2021/07/06 00:21:06;;;;;;;15.95;7.90;;;;;;;;;;5073865;28;20101;-63
2021/07/06 00:23:32;;;;;;;13.95;7.97;;;;;;;;;;5073712;28;20023;-64
2021/07/06 00:25:58;;;;;;;15.02;8.65;;;;;;;;;;5054026;28;20393;-61
2021/07/06 00:28:24;;;;;;;14.77;7.93;;;;;;;;;;5073690;28;20025;-64
2021/07/06 00:30:51;;;;;;;14.73;8.77;;;;;;;;;;5055408;28;20412;-64
2021/07/06 00:33:17;;;;;;;15.93;8.82;;;;;;;;;;5055276;28;20028;-63
2021/07/06 00:35:43;;;;;;;14.30;8.63;;;;;;;;;;5072618;28;20029;-63
2021/07/06 00:38:10;;;;;;;21.23;14.98;;;;;;;;;;5073247;28;20098;-64
2021/07/06 00:40:36;;;;;;;20.60;8.13;;;;;;;;;;5073312;28;20021;-63
2021/07/06 00:43:02;;;;;;;15.40;8.68;;;;;;;;;;5055189;28;20400;-65
2021/07/06 00:45:29;;;;;;;16.42;8.13;;;;;;;;;;5072207;28;20099;-61
2021/07/06 00:47:57;;;;;;;16.50;10.35;;;;;;;;;;5073151;28;20031;-64
2021/07/06 00:50:23;;;;;;;15.38;8.82;;;;;;;;;;5073090;28;20430;-65
2021/07/06 00:52:50;;;;;;;18.02;9.68;;;;;;;;;;5072931;28;20093;-63
2021/07/06 00:55:16;;;;;;;14.73;8.98;;;;;;;;;;5054330;28;20051;-61
2021/07/06 00:57:42;;;;;;;18.73;10.40;;;;;;;;;;5072811;28;20055;-62
2021/07/06 01:00:10;;;;;;;15.60;8.70;;;;;;;;;;5073129;28;20461;-63
2021/07/06 01:02:36;;;;;;;14.10;7.97;;;;;;;;;;5072429;28;20036;-60
2021/07/06 01:05:03;;;;;;;14.80;7.80;;;;;;;;;;5053507;28;20075;-62
2021/07/06 01:07:29;;;;;;;14.88;8.30;;;;;;;;;;5071934;28;20266;-63
2021/07/06 01:09:55;;;;;;;14.27;8.10;;;;;;;;;;5072226;28;20024;-61
2021/07/06 01:12:21;;;;;;;14.98;7.65;;;;;;;;;;5054125;28;20024;-62
2021/07/06 01:14:47;;;;;;;18.52;8.93;;;;;;;;;;5053465;28;20021;-64
2021/07/06 01:17:14;;;;;;;15.73;8.30;;;;;;;;;;5071997;28;20099;-62
2021/07/06 01:19:41;;;;;;;14.18;7.95;;;;;;;;;;5071701;28;20017;-60
2021/07/06 01:22:07;;;;;;;14.65;7.63;;;;;;;;;;5072149;28;20016;-63
2021/07/06 01:24:38;;;;;;;14.32;7.75;;;;;;;;;;5071738;28;20098;-64
2021/07/06 01:27:04;;;;;;;14.52;7.60;;;;;;;;;;5071949;28;20490;-63
2021/07/06 01:29:30;;;;;;;14.30;8.25;;;;;;;;;;5054145;28;20484;-62
2021/07/06 01:31:56;;;;;;;14.32;8.20;;;;;;;;;;5054295;28;20033;-63
2021/07/06 01:34:22;;;;;;;16.80;9.13;;;;;;;;;;5071456;28;20068;-63
2021/07/06 01:36:48;;;;;;;14.55;8.35;;;;;;;;;;5071925;28;20052;-63
2021/07/06 01:39:15;;;;;;;13.93;8.00;;;;;;;;;;5072212;28;20057;-64
2021/07/06 01:41:44;;;;;;;14.52;8.70;;;;;;;;;;5054168;28;20028;-64
2021/07/06 01:44:20;;;;;;;14.45;8.10;;;;;;;;;;5053528;28;20070;-62
2021/07/06 01:46:46;;;;;;;14.82;8.07;;;;;;;;;;5071554;28;20028;-64
2021/07/06 01:49:13;;;;;;;13.95;7.78;;;;;;;;;;5072047;28;20095;-63
2021/07/06 01:51:40;;;;;;;16.25;8.18;;;;;;;;;;5072085;28;20526;-63
2021/07/06 01:54:06;;;;;;;15.95;8.30;;;;;;;;;;5071843;28;20043;-63
2021/07/06 01:56:35;;;;;;;16.35;9.60;;;;;;;;;;5071170;28;20036;-64
2021/07/06 01:59:01;;;;;;;14.85;8.45;;;;;;;;;;5073322;28;20431;-64
2021/07/06 02:01:27;;;;;;;16.25;8.50;;;;;;;;;;5071765;28;20025;-63
2021/07/06 02:03:53;;;;;;;14.70;8.60;;;;;;;;;;5071704;28;20472;-65
2021/07/06 02:06:19;;;;;;;14.57;8.52;;;;;;;;;;5071119;28;20032;-64
2021/07/06 02:08:45;;;;;;;15.40;8.70;;;;;;;;;;5053876;28;20024;-65
2021/07/06 02:11:12;;;;;;;17.88;11.68;;;;;;;;;;5053706;28;20032;-64
2021/07/06 02:13:38;;;;;;;15.43;8.68;;;;;;;;;;5070675;28;20031;-64
2021/07/06 02:16:04;;;;;;;14.50;8.68;;;;;;;;;;5070905;28;20029;-65
2021/07/06 02:18:32;;;;;;;14.43;8.20;;;;;;;;;;5053806;28;20052;-65
2021/07/06 02:20:58;;;;;;;15.10;7.90;;;;;;;;;;5071949;28;20025;-64
2021/07/06 02:23:25;;;;;;;14.35;8.15;;;;;;;;;;5071678;28;20040;-63
2021/07/06 02:25:52;;;;;;;14.48;8.32;;;;;;;;;;5070977;28;20389;-64
2021/07/06 02:28:19;;;;;;;14.85;8.50;;;;;;;;;;5053394;28;20488;-64
2021/07/06 02:30:45;;;;;;;14.43;8.52;;;;;;;;;;5071515;28;20031;-64
2021/07/06 02:33:11;;;;;;;14.20;8.30;;;;;;;;;;5053534;28;20031;-64
2021/07/06 02:35:37;;;;;;;15.38;9.05;;;;;;;;;;5070995;28;20028;-65
2021/07/06 02:38:03;;;;;;;15.85;9.68;;;;;;;;;;5071410;28;20021;-63
2021/07/06 02:40:30;;;;;;;16.77;11.82;;;;;;;;;;5071614;28;20146;-64
2021/07/06 02:42:56;;;;;;;15.88;12.07;;;;;;;;;;5071551;28;20025;-63
2021/07/06 02:45:22;;;;;;;15.63;12.20;;;;;;;;;;5052838;28;20029;-65
2021/07/06 02:47:49;;;;;;;17.17;13.43;;;;;;;;;;5071843;28;20024;-64
2021/07/06 02:50:18;;;;;;;16.30;13.20;;;;;;;;;;5075230;28;20536;-65
2021/07/06 02:52:44;;;;;;;16.30;13.23;;;;;;;;;;5075466;28;20024;-65
2021/07/06 02:55:11;;;;;;;18.15;13.52;;;;;;;;;;5074620;28;20031;-64
2021/07/06 02:57:37;;;;;;;17.08;14.50;;;;;;;;;;5075001;28;20029;-65
2021/07/06 03:00:10;;;;;;;16.85;14.32;;;;;;;;;;5075313;28;20096;-64
2021/07/06 03:02:36;;;;;;;16.67;13.90;;;;;;;;;;5075074;28;20143;-65
2021/07/06 03:05:03;;;;;;;17.30;13.68;;;;;;;;;;5074495;28;20020;-63
2021/07/06 03:07:29;;;;;;;18.30;14.10;;;;;;;;;;5057228;28;20107;-64
2021/07/06 03:09:55;;;;;;;17.10;13.98;;;;;;;;;;5075043;28;20163;-64
2021/07/06 03:12:21;;;;;;;16.80;13.90;;;;;;;;;;5056766;28;20024;-65
2021/07/06 03:14:46;;;;;;;16.67;13.55;;;;;;;;;;5074104;28;20036;-65
2021/07/06 03:17:12;;;;;;;17.70;13.82;;;;;;;;;;5074853;28;20384;-62
2021/07/06 03:19:38;;;;;;;16.90;13.77;;;;;;;;;;5074797;28;20132;-65
2021/07/06 03:22:04;;;;;;;18.15;14.00;;;;;;;;;;5056704;28;20020;-63
2021/07/06 03:24:30;;;;;;;16.88;13.13;;;;;;;;;;5073884;28;20025;-65
2021/07/06 03:26:56;;;;;;;16.88;13.52;;;;;;;;;;5056706;28;20036;-63
2021/07/06 03:29:22;;;;;;;18.17;13.80;;;;;;;;;;5056569;28;20082;-64
2021/07/06 03:31:48;;;;;;;18.25;13.13;;;;;;;;;;5056830;28;20554;-63
2021/07/06 03:34:14;;;;;;;18.90;13.20;;;;;;;;;;5073881;28;20028;-63
2021/07/06 03:36:40;;;;;;;16.92;12.85;;;;;;;;;;5074121;28;20539;-63
2021/07/06 03:39:06;;;;;;;16.08;12.68;;;;;;;;;;5056852;28;20054;-63
2021/07/06 03:41:32;;;;;;;20.83;12.85;;;;;;;;;;5056506;28;20119;-63
2021/07/06 03:43:58;;;;;;;17.42;12.95;;;;;;;;;;5074410;28;20028;-63
2021/07/06 03:46:26;;;;;;;17.95;13.35;;;;;;;;;;5055611;28;20514;-62
2021/07/06 03:48:52;;;;;;;19.10;13.60;;;;;;;;;;5074144;28;20107;-63
2021/07/06 03:51:18;;;;;;;16.73;12.90;;;;;;;;;;5074199;28;20024;-64
2021/07/06 03:53:44;;;;;;;16.02;12.18;;;;;;;;;;5074191;28;20025;-64
2021/07/06 03:56:10;;;;;;;19.88;12.77;;;;;;;;;;5073399;28;20357;-64
2021/07/06 03:58:36;;;;;;;17.55;12.73;;;;;;;;;;5073639;28;20043;-63
2021/07/06 04:01:02;;;;;;;16.30;12.35;;;;;;;;;;5073881;28;20055;-64
2021/07/06 04:03:28;;;;;;;16.60;12.80;;;;;;;;;;5074006;28;20024;-64
2021/07/06 04:05:54;;;;;;;17.05;12.90;;;;;;;;;;5055379;28;20027;-64
2021/07/06 04:08:20;;;;;;;15.90;12.82;;;;;;;;;;5073919;28;20064;-64
2021/07/06 04:10:46;;;;;;;16.63;12.32;;;;;;;;;;5073725;28;20383;-64
2021/07/06 04:13:12;;;;;;;16.73;12.50;;;;;;;;;;5073679;28;20498;-65
2021/07/06 04:15:38;;;;;;;16.50;12.65;;;;;;;;;;5072993;28;20028;-64
2021/07/06 04:18:04;;;;;;;17.90;12.02;;;;;;;;;;5073501;28;20139;-63
2021/07/06 04:20:32;;;;;;;17.48;12.63;;;;;;;;;;5055518;28;20038;-64
2021/07/06 04:22:58;;;;;;;21.42;12.25;;;;;;;;;;5073366;28;20392;-65
2021/07/06 04:25:24;;;;;;;17.48;12.20;;;;;;;;;;5072800;28;20020;-63
2021/07/06 04:27:51;;;;;;;17.50;12.30;;;;;;;;;;5073384;28;20078;-65
2021/07/06 04:30:18;;;;;;;15.68;11.38;;;;;;;;;;5073306;28;20090;-65
2021/07/06 04:32:45;;;;;;;15.30;12.05;;;;;;;;;;5073241;28;20396;-65
2021/07/06 04:35:11;;;;;;;17.45;12.65;;;;;;;;;;5072479;28;20021;-65
2021/07/06 04:37:37;;;;;;;16.95;12.30;;;;;;;;;;5072993;28;20043;-64
2021/07/06 04:40:04;;;;;;;15.80;11.95;;;;;;;;;;5055078;28;20065;-64
2021/07/06 04:42:30;;;;;;;18.42;12.00;;;;;;;;;;5054848;28;20575;-64
2021/07/06 04:44:56;;;;;;;16.83;12.07;;;;;;;;;;5072607;28;20395;-64
2021/07/06 04:47:22;;;;;;;15.32;11.65;;;;;;;;;;5072797;28;20025;-62
2021/07/06 04:49:49;;;;;;;17.30;11.57;;;;;;;;;;5054396;28;20378;-65
2021/07/06 04:52:15;;;;;;;15.73;11.30;;;;;;;;;;5054798;28;20400;-65
2021/07/06 04:54:41;;;;;;;16.05;11.43;;;;;;;;;;5072019;28;20024;-63
2021/07/06 04:57:07;;;;;;;16.40;11.40;;;;;;;;;;5072642;28;20032;-64
2021/07/06 04:59:33;;;;;;;19.08;11.02;;;;;;;;;;5072976;28;20473;-64
2021/07/06 05:01:59;;;;;;;16.23;11.27;;;;;;;;;;5054500;28;20048;-65
2021/07/06 05:04:25;;;;;;;16.75;10.70;;;;;;;;;;5053990;28;20467;-64
2021/07/06 05:06:51;;;;;;;16.13;10.60;;;;;;;;;;5072268;28;20124;-63
2021/07/06 05:09:17;;;;;;;15.77;10.80;;;;;;;;;;5072020;28;20554;-64
2021/07/06 05:11:43;;;;;;;16.95;10.00;;;;;;;;;;5071744;28;20032;-63
2021/07/06 05:14:09;;;;;;;17.15;10.73;;;;;;;;;;5071616;28;20093;-61
2021/07/06 05:16:35;;;;;;;15.10;10.32;;;;;;;;;;5072197;28;20016;-65
2021/07/06 05:19:01;;;;;;;16.27;10.15;;;;;;;;;;5071854;28;20104;-63
2021/07/06 05:21:27;;;;;;;15.40;10.65;;;;;;;;;;5071939;28;20453;-63
2021/07/06 05:23:53;;;;;;;15.50;10.25;;;;;;;;;;5071972;28;20036;-63
2021/07/06 05:26:19;;;;;;;16.08;10.10;;;;;;;;;;5070907;28;20476;-62
2021/07/06 05:28:45;;;;;;;16.08;9.98;;;;;;;;;;5053882;28;20036;-63
2021/07/06 05:31:11;;;;;;;15.30;10.50;;;;;;;;;;5071995;28;20032;-63
2021/07/06 05:33:37;;;;;;;17.80;10.18;;;;;;;;;;5071538;28;20021;-65
2021/07/06 05:36:03;;;;;;;16.90;10.45;;;;;;;;;;5071175;28;20017;-64
2021/07/06 05:38:29;;;;;;;15.98;10.07;;;;;;;;;;5053731;28;20022;-63
2021/07/06 05:40:55;;;;;;;16.13;10.45;;;;;;;;;;5071631;28;20389;-64
2021/07/06 05:43:22;;;;;;;15.48;10.52;;;;;;;;;;5071390;28;20016;-63
2021/07/06 05:45:52;;;;;;;16.52;10.63;;;;;;;;;;5052953;28;20127;-63
2021/07/06 05:48:18;;;;;;;15.82;10.13;;;;;;;;;;5071333;28;20029;-60
2021/07/06 05:50:44;;;;;;;17.50;9.80;;;;;;;;;;5071316;28;20490;-63
2021/07/06 05:53:11;;;;;;;15.77;10.25;;;;;;;;;;5071443;28;20107;-64
2021/07/06 05:55:37;;;;;;;16.63;10.82;;;;;;;;;;5070072;28;20161;-64
2021/07/06 05:58:03;;;;;;;17.85;10.68;;;;;;;;;;5071007;28;20089;-62
2021/07/06 06:00:29;;;;;;;16.33;10.65;;;;;;;;;;5071326;28;20381;-61
2021/07/06 06:02:55;;;;;;;17.38;10.38;;;;;;;;;;5071686;28;20053;-64
2021/07/06 06:05:21;;;;;;;15.35;10.40;;;;;;;;;;5070548;28;20028;-64
2021/07/06 06:07:49;;;;;;;17.67;9.98;;;;;;;;;;5053496;28;20500;-62
2021/07/06 06:10:15;;;;;;;17.25;9.48;;;;;;;;;;5071386;28;20027;-62
2021/07/06 06:12:41;;;;;;;19.58;9.95;;;;;;;;;;5067232;28;20048;-63
2021/07/06 06:15:08;;;;;;;17.08;10.18;;;;;;;;;;5063658;28;20024;-63
2021/07/06 06:17:35;;;;;;;17.13;9.95;;;;;;;;;;5052919;28;20051;-63
2021/07/06 06:20:01;;;;;;;15.18;9.82;;;;;;;;;;5071222;28;20032;-63
2021/07/06 06:22:27;;;;;;;15.50;9.32;;;;;;;;;;5052016;28;20023;-62
2021/07/06 06:24:53;;;;;;;16.58;9.70;;;;;;;;;;5070425;28;20028;-63
2021/07/06 06:27:19;;;;;;;16.58;9.70;;;;;;;;;;5053212;28;20029;-63
2021/07/06 06:29:45;;;;;;;15.40;9.27;;;;;;;;;;5060254;28;20029;-64
2021/07/06 06:32:11;;;;;;;15.68;9.90;;;;;;;;;;5051483;28;20485;-63
2021/07/06 06:34:37;;;;;;;16.15;9.60;;;;;;;;;;5050611;28;20029;-63
2021/07/06 06:37:03;;;;;;;16.67;9.80;;;;;;;;;;5051215;28;20031;-63
2021/07/06 06:39:29;;;;;;;14.85;9.43;;;;;;;;;;5051123;28;20430;-64
2021/07/06 06:41:55;;;;;;;17.55;9.40;;;;;;;;;;5051067;28;20060;-64
2021/07/06 06:44:21;;;;;;;14.75;9.38;;;;;;;;;;5050440;28;20387;-64
2021/07/06 06:46:47;;;;;;;16.52;9.70;;;;;;;;;;5060365;28;20036;-60
2021/07/06 06:49:13;;;;;;;15.38;9.38;;;;;;;;;;5070875;28;20024;-63
2021/07/06 06:51:39;;;;;;;15.05;9.48;;;;;;;;;;5070681;28;20036;-64
2021/07/06 06:54:05;;;;;;;15.90;9.50;;;;;;;;;;5070893;28;20032;-63
2021/07/06 06:56:31;;;;;;;14.98;9.05;;;;;;;;;;5070535;28;20065;-63
2021/07/06 06:58:58;;;;;;;17.58;9.05;;;;;;;;;;5070976;28;20021;-63
2021/07/06 07:01:24;;;;;;;22.08;9.80;;;;;;;;;;5070659;28;20029;-64
2021/07/06 07:03:50;;;;;;;14.70;9.40;;;;;;;;;;5070904;28;20512;-63
2021/07/06 07:06:17;;;;;;;16.73;9.32;;;;;;;;;;5070440;28;20139;-63
2021/07/06 07:08:43;;;;;;;16.77;9.75;;;;;;;;;;5071045;28;20060;-62
2021/07/06 07:11:09;;;;;;;17.58;9.85;;;;;;;;;;5070963;28;20024;-64
2021/07/06 07:13:35;;;;;;;15.88;9.70;;;;;;;;;;5070656;28;20032;-63
2021/07/06 07:16:03;;;;;;;15.63;10.32;;;;;;;;;;5070043;28;20017;-64
2021/07/06 07:18:29;;;;;;;16.95;10.23;;;;;;;;;;5070739;28;20027;-64
2021/07/06 07:20:55;;;;;;;14.60;9.70;;;;;;;;;;5071078;28;20020;-63
2021/07/06 07:23:21;;;;;;;16.40;10.32;;;;;;;;;;5070680;28;20048;-63
2021/07/06 07:25:47;;;;;;;16.23;10.20;;;;;;;;;;5070514;28;20056;-63
2021/07/06 07:28:13;;;;;;;17.35;11.30;;;;;;;;;;5052548;28;20139;-63
2021/07/06 07:30:39;;;;;;;19.63;10.10;;;;;;;;;;5070566;28;20114;-63
2021/07/06 07:33:05;;;;;;;17.20;10.88;;;;;;;;;;5071055;28;20028;-63
2021/07/06 07:35:31;;;;;;;16.58;10.57;;;;;;;;;;5072974;28;20547;-63
2021/07/06 07:37:56;;;;;;;16.25;10.38;;;;;;;;;;5074126;28;20021;-63
2021/07/06 07:40:23;;;;;;;18.00;10.98;;;;;;;;;;5074040;28;20033;-63
2021/07/06 07:42:49;;;;;;;15.13;11.20;;;;;;;;;;5074204;28;20016;-63
2021/07/06 07:45:15;;;;;;;16.13;11.40;;;;;;;;;;5073091;28;20025;-63
2021/07/06 07:47:41;;;;;;;15.80;11.75;;;;;;;;;;5074043;28;20469;-63
2021/07/06 07:50:08;;;;;;;16.15;11.85;;;;;;;;;;5074029;28;20029;-63
2021/07/06 07:52:35;;;;;;;15.80;11.82;;;;;;;;;;5073810;28;20028;-63
2021/07/06 07:55:01;;;;;;;16.60;11.93;;;;;;;;;;5072800;28;20365;-64
2021/07/06 07:57:27;;;;;;;16.98;12.43;;;;;;;;;;5056745;28;20072;-62
2021/07/06 07:59:54;;;;;;;16.95;11.55;;;;;;;;;;5074522;28;20048;-62
2021/07/06 08:02:21;;;;;;;15.75;11.63;;;;;;;;;;5073732;28;20027;-63
2021/07/06 08:04:47;;;;;;;16.92;11.75;;;;;;;;;;5072943;28;20106;-61
2021/07/06 08:07:13;;;;;;;16.50;11.95;;;;;;;;;;5073439;28;20048;-69
2021/07/06 08:09:40;;;;;;;16.40;12.95;;;;;;;;;;5055869;28;20041;-69
2021/07/06 08:12:06;;;;;;;17.67;11.32;;;;;;;;;;5055913;28;20469;-68
2021/07/06 08:14:32;;;;;;;15.50;11.40;;;;;;;;;;5071116;28;20025;-69
2021/07/06 08:16:59;;;;;;;17.42;11.35;;;;;;;;;;5056337;28;20124;-69
2021/07/06 08:19:25;;;;;;;16.83;11.35;;;;;;;;;;5073495;28;20029;-70
2021/07/06 08:21:51;;;;;;;15.13;11.10;;;;;;;;;;5055495;28;20033;-69
2021/07/06 08:24:17;;;;;;;17.38;12.10;;;;;;;;;;5073064;28;20052;-68
2021/07/06 08:26:44;;;;;;;17.30;11.43;;;;;;;;;;5055376;28;20556;-70
2021/07/06 08:29:10;;;;;;;15.88;11.25;;;;;;;;;;5055677;28;20024;-69
2021/07/06 08:31:36;;;;;;;15.73;11.48;;;;;;;;;;5055695;28;20503;-69
2021/07/06 08:34:02;;;;;;;16.50;11.32;;;;;;;;;;5055589;28;20040;-69
2021/07/06 08:36:28;;;;;;;15.82;10.77;;;;;;;;;;5072938;28;20021;-69
2021/07/06 08:38:54;;;;;;;15.00;10.65;;;;;;;;;;5055941;28;20024;-69
2021/07/06 08:41:22;;;;;;;15.15;11.02;;;;;;;;;;5073227;28;20030;-69
2021/07/06 08:43:47;;;;;;;15.60;11.18;;;;;;;;;;5072954;28;20119;-68
2021/07/06 08:46:18;;;;;;;16.50;11.23;;;;;;;;;;5071347;28;20507;-68
2021/07/06 08:48:45;;;;;;;15.88;10.38;;;;;;;;;;5072480;28;20029;-68
2021/07/06 08:51:11;;;;;;;16.42;10.95;;;;;;;;;;5072673;28;20120;-69
2021/07/06 08:53:37;;;;;;;15.40;11.10;;;;;;;;;;5072302;28;20035;-70
2021/07/06 08:56:03;;;;;;;15.80;11.25;;;;;;;;;;5053855;28;20408;-68
2021/07/06 08:58:29;;;;;;;15.23;10.55;;;;;;;;;;5072209;28;20040;-68
2021/07/06 09:00:55;;;;;;;15.10;10.00;;;;;;;;;;5072203;28;20490;-69
2021/07/06 09:03:21;;;;;;;15.38;10.05;;;;;;;;;;5072071;28;20028;-68
2021/07/06 09:05:48;;;;;;;14.57;9.50;;;;;;;;;;5053648;28;20023;-69
2021/07/06 09:08:18;;;;;;;14.60;9.90;;;;;;;;;;5072323;28;20035;-68
2021/07/06 09:10:44;;;;;;;15.40;9.80;;;;;;;;;;5071873;28;20021;-68
2021/07/06 09:13:26;;;;;;;15.20;10.10;;;;;;;;;;5071634;28;20424;-68
2021/07/06 09:15:56;;;;;;;16.42;10.05;;;;;;;;;;5071547;28;20016;-68
2021/07/06 09:18:23;;;;;;;15.25;9.63;;;;;;;;;;5071870;28;20103;-68
2021/07/06 09:20:58;;;;;;;20.08;10.65;;;;;;;;;;5072173;28;20021;-68
2021/07/06 09:23:25;;;;;;;15.63;10.90;;;;;;;;;;5071687;28;20035;-68
2021/07/06 09:26:06;;;;;;;16.40;11.87;;;;;;;;;;5071355;28;20035;-68
2021/07/06 09:28:34;;;;;;;18.45;10.77;;;;;;;;;;5070378;28;20267;-66
2021/07/06 09:31:13;;;;;;;15.07;10.38;;;;;;;;;;5062382;28;20036;-69
2021/07/06 09:33:46;;;;;;;14.60;10.15;;;;;;;;;;5053082;28;20025;-68
2021/07/06 09:36:24;;;;;;;16.00;10.20;;;;;;;;;;5071161;28;20091;-69
2021/07/06 09:39:02;;;;;;;15.03;10.00;;;;;;;;;;5053880;28;20025;-69
2021/07/06 09:41:28;;;;;;;16.17;10.40;;;;;;;;;;5072090;28;20021;-69
2021/07/06 09:43:54;;;;;;;16.05;10.13;;;;;;;;;;5054808;28;20511;-69
2021/07/06 09:46:24;;;;;;;16.45;10.40;;;;;;;;;;5071555;28;20032;-69
2021/07/06 09:49:00;;;;;;;14.95;10.30;;;;;;;;;;5073108;28;20027;-70
2021/07/06 09:51:26;;;;;;;15.85;10.27;;;;;;;;;;5071864;28;20025;-69
2021/07/06 09:53:53;;;;;;;16.35;9.70;;;;;;;;;;5071926;28;20089;-69
2021/07/06 09:56:22;;;;;;;14.63;9.23;;;;;;;;;;5053682;28;20029;-69
2021/07/06 09:58:52;;;;;;;14.80;9.68;;;;;;;;;;5072497;28;20055;-68
2021/07/06 10:01:18;;;;;;;14.90;9.43;;;;;;;;;;5090086;28;20023;-69
2021/07/06 10:03:44;;;;;;;14.50;9.18;;;;;;;;;;5091364;28;20031;-68
2021/07/06 10:06:11;;;;;;;15.93;9.13;;;;;;;;;;5091450;28;20431;-68
2021/07/06 10:08:37;;;;;;;14.70;9.20;;;;;;;;;;5073039;28;20031;-69
2021/07/06 10:11:03;;;;;;;14.88;9.13;;;;;;;;;;5073622;28;20138;-68
2021/07/06 10:13:30;;;;;;;14.27;9.00;;;;;;;;;;5086529;28;20168;-70
2021/07/06 10:15:56;;;;;;;16.85;9.00;;;;;;;;;;5057147;28;20118;-69
2021/07/06 10:18:22;;;;;;;14.25;8.55;;;;;;;;;;5092349;28;20113;-70
2021/07/06 10:20:48;;;;;;;14.10;8.93;;;;;;;;;;5092500;28;20044;-69
2021/07/06 10:23:14;;;;;;;14.93;9.05;;;;;;;;;;5092153;28;20593;-70
2021/07/06 10:25:41;;;;;;;14.20;8.85;;;;;;;;;;5091243;28;20028;-67
2021/07/06 10:28:08;;;;;;;14.20;8.90;;;;;;;;;;5073880;28;20059;-69
2021/07/06 10:30:41;;;;;;;14.95;9.00;;;;;;;;;;5091917;28;20024;-70
2021/07/06 10:33:11;;;;;;;15.35;9.20;;;;;;;;;;5091280;28;20487;-68
2021/07/06 10:35:37;;;;;;;14.18;8.95;;;;;;;;;;5091079;28;20052;-66
2021/07/06 10:38:22;;;;;;;15.65;9.38;;;;;;;;;;5092487;28;20028;-70
2021/07/06 10:40:48;;;;;;;17.40;9.82;;;;;;;;;;5073743;28;20020;-68
2021/07/06 10:43:30;;;;;;;15.20;8.75;;;;;;;;;;5091526;28;20095;-67
2021/07/06 10:45:57;;;;;;;14.30;8.90;;;;;;;;;;5090919;28;20023;-69
2021/07/06 10:48:42;;;;;;;15.02;8.68;;;;;;;;;;5091432;28;20020;-66
2021/07/06 10:51:08;;;;;;;14.70;8.38;;;;;;;;;;5073522;28;20058;-66
2021/07/06 10:53:34;;;;;;;15.70;8.70;;;;;;;;;;5068994;28;20086;-65
2021/07/06 10:56:12;;;;;;;13.80;8.25;;;;;;;;;;5070302;28;20104;-66
2021/07/06 10:58:38;;;;;;;;;;;;;;;;;;5052697;28;20028;-68
2021/07/06 11:01:04;;;;;;;14.60;8.10;;;;;;;;;;5049970;28;19912;-66
2021/07/06 11:03:40;;;;;;;14.85;8.20;;;;;;;;;;5071492;28;20029;-65
2021/07/06 11:06:26;;;;;;;14.35;8.48;;;;;;;;;;5052039;28;20035;-67
2021/07/06 11:08:52;;;;;;;15.30;8.80;;;;;;;;;;5071474;28;20024;-66
2021/07/06 11:11:33;;;;;;;14.32;8.70;;;;;;;;;;5095303;28;20020;-65
2021/07/06 11:14:18;;;;;;;14.52;8.48;;;;;;;;;;5085263;28;20016;-66
2021/07/06 11:16:55;;;;;;;14.40;8.80;;;;;;;;;;5074710;28;20059;-66
2021/07/06 11:19:38;;;;;;;14.20;8.70;;;;;;;;;;5056850;28;20043;-66
2021/07/06 11:22:17;;;;;;;14.02;8.65;;;;;;;;;;5074216;28;20107;-66
2021/07/06 11:24:48;;;;;;;15.60;8.18;;;;;;;;;;5055874;28;20404;-65
2021/07/06 11:27:15;;;;;;;15.48;8.88;;;;;;;;;;5074216;28;20086;-67
2021/07/06 11:29:42;;;;;;;15.65;9.07;;;;;;;;;;5074121;28;20408;-66
2021/07/06 11:32:10;;;;;;;13.82;8.68;;;;;;;;;;5073939;28;20364;-66
2021/07/06 11:34:37;;;;;;;14.15;9.02;;;;;;;;;;5073343;28;20085;-66
2021/07/06 11:37:04;;;;;;;14.10;9.40;;;;;;;;;;5074109;28;20023;-66
2021/07/06 11:39:30;;;;;;;14.80;9.98;;;;;;;;;;5074045;28;20202;-66
2021/07/06 11:41:56;;;;;;;16.73;9.90;;;;;;;;;;5056593;28;20032;-66
2021/07/06 11:44:22;;;;;;;15.25;9.93;;;;;;;;;;5074371;28;20040;-67
2021/07/06 11:46:48;;;;;;;15.63;10.88;;;;;;;;;;5073954;28;20081;-67
2021/07/06 11:49:20;;;;;;;15.75;10.57;;;;;;;;;;5074272;28;20024;-68
2021/07/06 11:51:46;;;;;;;14.95;11.00;;;;;;;;;;5056613;28;20039;-67
2021/07/06 11:54:15;;;;;;;16.05;11.20;;;;;;;;;;5056192;28;20033;-66
2021/07/06 11:56:42;;;;;;;20.05;11.35;;;;;;;;;;5073682;28;20025;-66
2021/07/06 11:59:11;;;;;;;15.05;11.45;;;;;;;;;;5073725;28;20021;-66
2021/07/06 12:01:37;;;;;;;16.23;11.70;;;;;;;;;;5055771;28;20078;-64
2021/07/06 12:04:04;;;;;;;17.17;11.60;;;;;;;;;;5073491;28;20086;-65
2021/07/06 12:06:31;;;;;;;16.45;12.30;;;;;;;;;;5073096;28;20400;-65
2021/07/06 12:09:01;;;;;;;18.30;12.00;;;;;;;;;;5073738;28;20100;-66
2021/07/06 12:11:31;;;;;;;18.23;12.25;;;;;;;;;;5055718;28;20029;-64
2021/07/06 12:13:58;;;;;;;16.55;11.63;;;;;;;;;;5072967;28;20025;-62
2021/07/06 12:16:26;;;;;;;18.63;11.68;;;;;;;;;;5072807;28;20021;-64
2021/07/06 12:18:59;;;;;;;16.30;11.40;;;;;;;;;;5073385;28;20021;-65
2021/07/06 12:21:28;;;;;;;14.88;11.52;;;;;;;;;;5073757;28;20048;-63
2021/07/06 12:23:54;;;;;;;17.83;11.80;;;;;;;;;;5073145;28;20100;-63
2021/07/06 12:26:21;;;;;;;17.42;11.40;;;;;;;;;;5054516;28;20029;-64
2021/07/06 12:28:47;;;;;;;16.08;11.52;;;;;;;;;;5054808;28;20075;-63
2021/07/06 12:31:15;;;;;;;19.55;12.85;;;;;;;;;;5073057;28;20392;-64
2021/07/06 12:33:42;;;;;;;16.67;11.18;;;;;;;;;;5054745;28;20349;-59
2021/07/06 12:36:08;;;;;;;16.98;11.75;;;;;;;;;;5072325;28;20059;-59
2021/07/06 12:38:34;;;;;;;17.92;11.38;;;;;;;;;;5054985;28;20024;-61
2021/07/06 12:41:00;;;;;;;19.83;12.50;;;;;;;;;;5073133;28;20122;-57
2021/07/06 12:43:26;;;;;;;17.10;12.57;;;;;;;;;;5054892;28;20029;-60
2021/07/06 12:45:52;;;;;;;17.67;12.60;;;;;;;;;;5072512;28;20124;-57
2021/07/06 12:48:27;;;;;;;19.10;12.70;;;;;;;;;;5072001;28;20029;-55
2021/07/06 12:50:54;;;;;;;16.30;13.55;;;;;;;;;;5072384;28;20029;-60
2021/07/06 12:53:23;;;;;;;16.10;13.40;;;;;;;;;;5072501;28;20033;-61
2021/07/06 12:55:49;;;;;;;17.25;13.43;;;;;;;;;;5071789;28;20024;-62
2021/07/06 12:58:16;;;;;;;16.75;12.90;;;;;;;;;;5061178;28;20021;-59
2021/07/06 13:00:43;;;;;;;16.13;12.90;;;;;;;;;;5052753;28;20033;-60
2021/07/06 13:03:20;;;;;;;16.55;13.05;;;;;;;;;;5051199;28;20039;-59
2021/07/06 13:05:48;;;;;;;18.42;14.15;;;;;;;;;;5052153;28;20024;-57
2021/07/06 13:08:18;;;;;;;16.50;14.48;;;;;;;;;;5052376;28;20572;-61
2021/07/06 13:10:44;;;;;;;16.83;14.35;;;;;;;;;;5052477;28;20033;-55
2021/07/06 13:13:11;;;;;;;20.02;15.75;;;;;;;;;;5053275;28;20090;-59
2021/07/06 13:15:40;;;;;;;17.67;15.23;;;;;;;;;;5071851;28;20067;-56
2021/07/06 13:18:08;;;;;;;20.58;15.90;;;;;;;;;;5072471;28;20024;-60
2021/07/06 13:20:36;;;;;;;17.17;15.37;;;;;;;;;;5054507;28;20021;-56
2021/07/06 13:23:02;;;;;;;17.37;15.13;;;;;;;;;;5072416;28;20024;-57
2021/07/06 13:25:28;;;;;;;17.88;15.80;;;;;;;;;;5071635;28;20024;-61
2021/07/06 13:27:58;;;;;;;16.98;15.02;;;;;;;;;;5072056;28;20530;-58
2021/07/06 13:30:24;;;;;;;18.00;15.07;;;;;;;;;;5072296;28;20016;-59
2021/07/06 13:32:50;;;;;;;17.05;15.02;;;;;;;;;;5071376;28;20555;-57
2021/07/06 13:35:17;;;;;;;16.70;14.90;;;;;;;;;;5071110;28;20111;-58
2021/07/06 13:37:43;;;;;;;18.00;15.05;;;;;;;;;;5054269;28;20027;-57
2021/07/06 13:40:14;;;;;;;18.45;15.52;;;;;;;;;;5072222;28;20035;-59
2021/07/06 13:42:40;;;;;;;17.20;15.40;;;;;;;;;;5072707;28;20031;-58
2021/07/06 13:45:08;;;;;;;18.70;15.30;;;;;;;;;;5053819;28;20088;-57
2021/07/06 13:47:36;;;;;;;19.37;15.00;;;;;;;;;;5071747;28;20535;-59
2021/07/06 13:50:04;;;;;;;18.70;15.27;;;;;;;;;;5068394;28;20098;-61
2021/07/06 13:52:30;;;;;;;17.53;15.03;;;;;;;;;;5064013;28;20032;-59
2021/07/06 13:54:58;;;;;;;17.52;14.85;;;;;;;;;;5070360;28;20442;-61
2021/07/06 13:57:24;;;;;;;17.50;14.23;;;;;;;;;;5065144;28;20017;-57
2021/07/06 13:59:50;;;;;;;17.23;14.68;;;;;;;;;;5065817;28;20044;-59
2021/07/06 14:02:17;;;;;;;17.38;15.10;;;;;;;;;;5054460;28;20086;-60
2021/07/06 14:04:43;;;;;;;16.50;14.70;;;;;;;;;;5050932;28;20425;-59
2021/07/06 14:07:09;;;;;;;19.25;15.52;;;;;;;;;;5051225;28;20155;-58
2021/07/06 14:09:35;;;;;;;18.08;15.57;;;;;;;;;;5051670;28;20021;-59
2021/07/06 14:12:03;;;;;;;19.30;16.17;;;;;;;;;;5051752;28;20100;-55
2021/07/06 14:14:28;;;;;;;17.55;15.75;;;;;;;;;;5062510;28;20519;-57
2021/07/06 14:16:54;;;;;;;17.40;15.60;;;;;;;;;;5052802;28;20020;-58
2021/07/06 14:19:21;;;;;;;19.20;15.40;;;;;;;;;;5069245;28;20036;-60
2021/07/06 14:21:47;;;;;;;19.95;15.60;;;;;;;;;;5060920;28;20020;-55
2021/07/06 14:24:14;;;;;;;18.08;15.80;;;;;;;;;;5059184;28;20108;-57